createdAt,value
2019-05-02T00:01:52.136Z,23.93
2019-05-02T00:04:21.381Z,24.80
2019-05-02T00:07:05.527Z,23.53
2019-05-02T00:09:35.989Z,25.37
2019-05-02T00:12:08.021Z,24.37
2019-05-02T00:14:37.769Z,25.37
2019-05-02T00:17:08.061Z,25.77
2019-05-02T00:19:37.244Z,25.37
2019-05-02T00:22:07.322Z,25.77
2019-05-02T00:24:39.165Z,26.20
2019-05-02T00:27:08.147Z,25.87
2019-05-02T00:29:37.760Z,27.63
2019-05-02T00:32:06.991Z,27.40
2019-05-02T00:34:36.119Z,27.03
2019-05-02T00:37:05.475Z,27.40
2019-05-02T00:39:34.595Z,28.17
2019-05-02T00:42:12.364Z,27.93
2019-05-02T00:44:35.015Z,28.40
2019-05-02T00:47:12.633Z,27.73
2019-05-02T00:49:41.797Z,27.60
2019-05-02T00:52:10.924Z,27.77
2019-05-02T00:54:40.083Z,27.93
2019-05-02T00:57:09.192Z,30.63
2019-05-02T00:59:42.429Z,28.73
2019-05-02T01:02:16.435Z,29.17
2019-05-02T01:04:46.965Z,29.83
2019-05-02T01:07:20.494Z,30.10
2019-05-02T01:09:48.048Z,29.40
2019-05-02T01:12:26.182Z,29.57
2019-05-02T01:14:48.500Z,30.83
2019-05-02T01:17:17.599Z,29.67
2019-05-02T01:19:47.340Z,30.07
2019-05-02T01:22:17.665Z,28.97
2019-05-02T01:24:46.900Z,30.73
2019-05-02T01:27:23.012Z,29.90
2019-05-02T01:30:05.648Z,30.87
2019-05-02T01:32:48.250Z,32.60
2019-05-02T01:35:26.939Z,31.40
2019-05-02T01:38:11.050Z,32.53
2019-05-02T01:40:40.315Z,32.73
2019-05-02T01:43:24.058Z,33.60
2019-05-02T01:45:53.517Z,31.17
2019-05-02T01:48:22.632Z,33.67
2019-05-02T01:50:51.957Z,30.83
2019-05-02T01:53:21.051Z,34.03
2019-05-02T01:55:52.072Z,33.50
2019-05-02T01:58:22.889Z,34.63
2019-05-02T02:00:51.991Z,33.80
2019-05-02T02:03:21.304Z,34.53
2019-05-02T02:05:50.515Z,34.17
2019-05-02T02:08:19.777Z,33.20
2019-05-02T02:10:50.548Z,33.70
2019-05-02T02:13:19.820Z,33.87
2019-05-02T02:15:48.955Z,35.83
2019-05-02T02:18:22.128Z,34.57
2019-05-02T02:21:07.693Z,35.30
2019-05-02T02:24:14.061Z,34.43
2019-05-02T02:26:47.718Z,35.53
2019-05-02T02:29:14.528Z,33.07
2019-05-02T02:31:46.919Z,35.17
2019-05-02T02:34:21.219Z,32.40
2019-05-02T02:36:45.799Z,33.67
2019-05-02T02:39:17.161Z,35.73
2019-05-02T02:41:51.980Z,33.87
2019-05-02T02:44:48.128Z,34.57
2019-05-02T02:47:18.803Z,37.37
2019-05-02T02:49:48.376Z,34.97
2019-05-02T02:52:17.672Z,34.40
2019-05-02T02:54:46.919Z,34.40
2019-05-02T02:57:25.816Z,35.23
2019-05-02T02:59:46.808Z,36.67
2019-05-02T03:02:16.092Z,35.87
2019-05-02T03:04:46.436Z,35.27
2019-05-02T03:07:24.029Z,35.40
2019-05-02T03:09:46.840Z,37.20
2019-05-02T03:12:43.176Z,36.73
2019-05-02T03:15:21.242Z,37.73
2019-05-02T03:17:47.132Z,37.97
2019-05-02T03:20:16.260Z,37.00
2019-05-02T03:22:45.350Z,35.83
2019-05-02T03:25:18.346Z,38.00
2019-05-02T03:27:45.502Z,36.33
2019-05-02T03:30:29.794Z,35.27
2019-05-02T03:33:02.525Z,36.37
2019-05-02T03:35:18.605Z,37.87
2019-05-02T03:37:51.388Z,38.40
2019-05-02T03:40:18.515Z,37.93
2019-05-02T03:42:47.875Z,37.17
2019-05-02T03:45:17.249Z,37.60
2019-05-02T03:47:47.345Z,36.67
2019-05-02T03:50:16.533Z,37.33
2019-05-02T03:52:46.488Z,36.37
2019-05-02T03:55:16.022Z,36.30
2019-05-02T03:57:45.248Z,36.60
2019-05-02T04:00:20.774Z,34.70
2019-05-02T04:02:46.031Z,34.17
2019-05-02T04:05:15.152Z,35.23
2019-05-02T04:07:44.449Z,35.73
2019-05-02T04:10:20.020Z,38.07
2019-05-02T04:12:53.018Z,39.73
2019-05-02T04:15:20.116Z,42.10
2019-05-02T04:17:49.274Z,37.27
2019-05-02T04:20:18.678Z,39.07
2019-05-02T04:22:49.097Z,38.73
2019-05-02T04:25:19.807Z,37.00
2019-05-02T04:27:49.095Z,37.57
2019-05-02T04:30:18.327Z,36.35
2019-05-02T04:32:49.589Z,34.80
2019-05-02T04:35:18.439Z,38.20
2019-05-02T04:37:47.576Z,35.63
2019-05-02T04:40:18.245Z,35.90
2019-05-02T04:42:53.455Z,34.57
2019-05-02T04:45:26.527Z,33.30
2019-05-02T04:50:25.263Z,34.80
2019-05-02T04:52:53.776Z,33.30
2019-05-02T04:55:28.997Z,35.47
2019-05-02T04:57:52.702Z,34.08
2019-05-02T05:00:28.745Z,33.60
2019-05-02T05:02:58.229Z,35.25
2019-05-02T05:05:30.622Z,34.63
2019-05-02T05:07:58.593Z,35.80
2019-05-02T05:10:27.976Z,36.90
2019-05-02T05:12:57.229Z,35.60
2019-05-02T05:15:37.111Z,36.05
2019-05-02T05:17:58.212Z,35.85
2019-05-02T05:20:28.067Z,34.70
2019-05-02T05:22:58.102Z,34.73
2019-05-02T05:25:33.687Z,36.73
2019-05-02T05:28:05.895Z,33.35
2019-05-02T05:30:39.064Z,34.43
2019-05-02T05:33:04.472Z,35.05
2019-05-02T05:35:33.591Z,35.13
2019-05-02T05:38:02.770Z,34.33
2019-05-02T05:40:32.350Z,34.50
2019-05-02T05:43:02.653Z,33.83
2019-05-02T05:45:32.450Z,35.88
2019-05-02T05:48:01.599Z,36.00
2019-05-02T05:50:32.200Z,35.08
2019-05-02T05:53:02.886Z,36.80
2019-05-02T05:55:32.157Z,33.88
2019-05-02T05:58:11.873Z,34.00
2019-05-02T06:00:32.480Z,34.55
2019-05-02T06:03:10.935Z,36.35
2019-05-02T06:05:33.207Z,36.00
2019-05-02T06:08:03.793Z,35.10
2019-05-02T06:10:32.992Z,34.95
2019-05-02T06:13:05.243Z,33.18
2019-05-02T06:15:38.974Z,33.55
2019-05-02T06:18:09.722Z,35.68
2019-05-02T06:20:38.946Z,34.33
2019-05-02T06:23:08.124Z,34.75
2019-05-02T06:25:37.307Z,34.90
2019-05-02T06:28:06.862Z,35.65
2019-05-02T06:30:45.636Z,35.20
2019-05-02T06:33:15.486Z,34.53
2019-05-02T06:35:45.210Z,35.75
2019-05-02T06:38:15.333Z,35.73
2019-05-02T06:40:47.975Z,35.05
2019-05-02T06:43:17.433Z,35.68
2019-05-02T06:45:49.889Z,35.58
2019-05-02T06:48:19.585Z,36.42
2019-05-02T06:50:49.587Z,37.35
2019-05-02T06:53:18.816Z,36.93
2019-05-02T06:55:47.898Z,37.65
2019-05-02T06:58:17.396Z,35.88
2019-05-02T07:00:57.402Z,37.25
2019-05-02T07:03:17.989Z,37.65
2019-05-02T07:05:49.085Z,38.23
2019-05-02T07:08:18.952Z,35.15
2019-05-02T07:10:49.033Z,39.98
2019-05-02T07:13:18.467Z,39.48
2019-05-02T07:15:57.991Z,40.25
2019-05-02T07:18:28.636Z,38.95
2019-05-02T07:20:57.839Z,41.25
2019-05-02T07:23:27.412Z,41.00
2019-05-02T07:25:59.950Z,40.17
2019-05-02T07:28:27.687Z,41.83
2019-05-02T07:30:57.182Z,41.60
2019-05-02T07:33:26.608Z,41.35
2019-05-02T07:36:00.171Z,42.27
2019-05-02T07:38:27.593Z,42.30
2019-05-02T07:40:56.861Z,42.48
2019-05-02T07:43:26.164Z,43.08
2019-05-02T07:45:55.395Z,43.87
2019-05-02T07:48:24.489Z,42.70
2019-05-02T07:50:54.110Z,44.38
2019-05-02T07:53:23.587Z,44.13
2019-05-02T07:55:52.936Z,41.98
2019-05-02T07:58:22.136Z,42.58
2019-05-02T08:00:51.452Z,44.73
2019-05-02T08:03:20.648Z,45.12
2019-05-02T08:05:54.452Z,45.80
2019-05-02T08:08:25.135Z,45.88
2019-05-02T08:10:53.799Z,46.28
2019-05-02T08:13:22.708Z,46.77
2019-05-02T08:15:52.410Z,45.60
2019-05-02T08:18:25.131Z,46.05
2019-05-02T08:20:55.984Z,46.08
2019-05-02T08:23:25.883Z,47.05
2019-05-02T08:25:54.403Z,47.93
2019-05-02T08:28:29.551Z,46.40
2019-05-02T08:30:58.658Z,49.85
2019-05-02T08:33:29.269Z,50.10
2019-05-02T08:35:58.788Z,48.90
2019-05-02T08:38:27.946Z,50.10
2019-05-02T08:40:57.237Z,50.05
2019-05-02T08:43:26.537Z,49.55
2019-05-02T08:45:55.604Z,51.90
2019-05-02T08:48:24.739Z,52.98
2019-05-02T08:50:54.057Z,50.33
2019-05-02T08:53:23.214Z,50.67
2019-05-02T08:55:52.485Z,50.10
2019-05-02T08:58:21.678Z,49.33
2019-05-02T09:00:50.776Z,53.42
2019-05-02T09:03:20.071Z,52.40
2019-05-02T09:05:49.237Z,51.88
2019-05-02T09:08:18.481Z,52.48
2019-05-02T09:10:47.833Z,50.23
2019-05-02T09:13:23.508Z,48.35
2019-05-02T09:15:51.212Z,49.60
2019-05-02T09:18:18.811Z,49.83
2019-05-02T09:20:54.887Z,48.28
2019-05-02T09:23:19.003Z,49.23
2019-05-02T09:25:48.345Z,48.85
2019-05-02T09:28:22.477Z,48.00
2019-05-02T09:30:48.951Z,48.95
2019-05-02T09:33:18.190Z,50.33
2019-05-02T09:35:47.395Z,47.80
2019-05-02T09:38:16.584Z,45.83
2019-05-02T09:40:47.324Z,45.63
2019-05-02T09:43:16.723Z,45.48
2019-05-02T09:45:46.021Z,45.30
2019-05-02T09:48:17.220Z,45.80
2019-05-02T09:50:46.300Z,46.65
2019-05-02T09:53:20.605Z,46.02
2019-05-02T09:55:50.392Z,49.45
2019-05-02T09:58:21.272Z,47.65
2019-05-02T10:01:03.405Z,45.08
2019-05-02T10:03:32.659Z,45.85
2019-05-02T10:06:03.163Z,44.05
2019-05-02T10:08:32.557Z,48.02
2019-05-02T10:11:02.772Z,45.35
2019-05-02T10:13:33.560Z,45.73
2019-05-02T10:16:06.085Z,45.67
2019-05-02T10:18:35.235Z,45.65
2019-05-02T10:21:07.945Z,44.13
2019-05-02T10:23:35.483Z,46.95
2019-05-02T10:26:05.025Z,45.65
2019-05-02T10:28:34.375Z,44.67
2019-05-02T10:31:03.714Z,42.60
2019-05-02T10:33:37.500Z,39.15
2019-05-02T10:36:03.772Z,37.65
2019-05-02T10:38:32.955Z,33.98
2019-05-02T10:41:04.815Z,34.88
2019-05-02T10:43:33.200Z,33.80
2019-05-02T10:46:08.393Z,34.40
2019-05-02T10:48:42.126Z,34.98
2019-05-02T10:51:33.608Z,34.13
2019-05-02T10:54:03.708Z,28.87
2019-05-02T10:56:33.104Z,26.50
2019-05-02T10:59:02.348Z,16.90
2019-05-02T11:01:37.085Z,11.97
2019-05-02T11:04:08.280Z,11.90
2019-05-02T11:06:42.741Z,11.00
2019-05-02T11:09:12.099Z,11.93
2019-05-02T11:11:42.542Z,12.18
2019-05-02T11:14:18.056Z,16.10
2019-05-02T11:16:56.867Z,17.75
2019-05-02T11:19:34.767Z,19.80
2019-05-02T11:22:04.156Z,22.98
2019-05-02T11:24:35.040Z,24.90
2019-05-02T11:27:04.252Z,26.12
2019-05-02T11:29:33.572Z,26.35
2019-05-02T11:32:02.886Z,27.52
2019-05-02T11:34:32.770Z,28.12
2019-05-02T11:37:02.020Z,28.07
2019-05-02T11:39:37.874Z,28.23
2019-05-02T11:42:02.234Z,23.40
2019-05-02T11:44:32.631Z,25.40
2019-05-02T11:47:02.191Z,25.02
2019-05-02T11:49:32.125Z,27.55
2019-05-02T11:52:04.551Z,28.50
2019-05-02T11:54:32.523Z,30.68
2019-05-02T11:57:02.749Z,31.73
2019-05-02T11:59:32.128Z,33.78
2019-05-02T12:02:13.701Z,34.65
2019-05-02T12:04:41.776Z,37.08
2019-05-02T12:07:12.745Z,37.05
2019-05-02T12:09:45.646Z,36.10
2019-05-02T12:12:15.574Z,36.68
2019-05-02T12:14:43.951Z,39.38
2019-05-02T12:17:13.112Z,35.08
2019-05-02T12:19:42.688Z,33.63
2019-05-02T12:22:16.739Z,33.48
2019-05-02T12:24:45.311Z,33.20
2019-05-02T12:27:13.959Z,33.25
2019-05-02T12:29:43.136Z,33.20
2019-05-02T12:32:12.229Z,32.83
2019-05-02T12:34:42.039Z,30.90
2019-05-02T12:37:12.593Z,29.75
2019-05-02T12:39:42.578Z,29.05
2019-05-02T12:42:12.703Z,27.70
2019-05-02T12:44:42.683Z,26.60
2019-05-02T12:47:31.917Z,28.87
2019-05-02T12:50:03.180Z,25.62
2019-05-02T12:52:32.332Z,27.27
2019-05-02T12:55:02.245Z,26.17
2019-05-02T12:57:32.183Z,28.17
2019-05-02T13:00:02.150Z,26.90
2019-05-02T13:02:37.979Z,25.52
2019-05-02T13:05:07.140Z,27.77
2019-05-02T13:07:36.661Z,27.05
2019-05-02T13:10:06.863Z,27.15
2019-05-02T13:12:38.163Z,27.95
2019-05-02T13:15:07.493Z,27.00
2019-05-02T13:17:43.932Z,27.00
2019-05-02T13:20:12.296Z,28.15
2019-05-02T13:23:06.279Z,27.25
2019-05-02T13:25:37.035Z,26.10
2019-05-02T13:28:06.514Z,25.65
2019-05-02T13:30:52.128Z,25.45
2019-05-02T13:33:34.406Z,25.32
2019-05-02T13:36:02.491Z,23.80
2019-05-02T13:38:32.940Z,25.65
2019-05-02T13:41:02.666Z,24.43
2019-05-02T13:43:38.216Z,24.77
2019-05-02T13:46:15.172Z,24.37
2019-05-02T13:48:44.371Z,23.35
2019-05-02T13:51:13.775Z,23.02
2019-05-02T13:54:12.579Z,24.02
2019-05-02T13:56:49.854Z,22.45
2019-05-02T13:59:22.192Z,21.48
2019-05-02T14:01:53.186Z,20.72
2019-05-02T14:04:23.490Z,18.62
2019-05-02T14:06:53.056Z,18.98
2019-05-02T14:09:40.364Z,17.27
2019-05-02T14:12:21.845Z,16.48
2019-05-02T14:14:51.917Z,14.93
2019-05-02T14:17:22.976Z,14.33
2019-05-02T14:20:01.204Z,13.10
2019-05-02T14:22:23.227Z,12.47
2019-05-02T14:24:52.431Z,11.25
2019-05-02T14:27:22.327Z,12.18
2019-05-02T14:29:52.490Z,10.28
2019-05-02T14:32:26.342Z,9.48
2019-05-02T14:35:04.997Z,9.60
2019-05-02T14:37:34.071Z,10.13
2019-05-02T14:40:15.519Z,7.87
2019-05-02T14:42:44.765Z,7.65
2019-05-02T14:45:27.334Z,7.05
2019-05-02T14:47:45.220Z,8.15
2019-05-02T14:50:23.418Z,7.50
2019-05-02T14:52:45.889Z,5.92
2019-05-02T14:55:17.016Z,5.97
2019-05-02T14:57:47.243Z,6.03
2019-05-02T15:00:17.262Z,5.97
2019-05-02T15:02:49.120Z,5.67
2019-05-02T15:05:19.220Z,6.90
2019-05-02T15:07:48.462Z,6.37
2019-05-02T15:10:17.927Z,6.90
2019-05-02T15:12:53.544Z,6.20
2019-05-02T15:15:18.828Z,7.45
2019-05-02T15:17:48.201Z,6.72
2019-05-02T15:20:17.663Z,6.72
2019-05-02T15:22:46.856Z,5.85
2019-05-02T15:25:17.995Z,5.20
2019-05-02T15:27:50.019Z,4.53
2019-05-02T15:30:18.138Z,4.53
2019-05-02T15:32:53.687Z,4.55
2019-05-02T15:35:57.239Z,5.17
2019-05-02T15:38:28.391Z,5.50
2019-05-02T15:40:59.123Z,5.67
2019-05-02T15:43:28.657Z,4.08
2019-05-02T15:45:57.771Z,5.12
2019-05-02T15:48:27.653Z,4.47
2019-05-02T15:51:00.175Z,5.87
2019-05-02T15:53:49.675Z,5.80
2019-05-02T15:56:20.310Z,5.50
2019-05-02T15:58:47.639Z,4.67
2019-05-02T16:01:36.606Z,3.83
2019-05-02T16:04:09.356Z,4.47
2019-05-02T16:06:38.455Z,3.80
2019-05-02T16:09:08.411Z,3.20
2019-05-02T16:11:37.548Z,2.92
2019-05-02T16:14:06.847Z,3.08
2019-05-02T16:16:36.595Z,3.40
2019-05-02T16:19:07.109Z,3.10
2019-05-02T16:21:42.693Z,3.08
2019-05-02T16:24:24.927Z,3.12
2019-05-02T16:26:56.906Z,3.77
2019-05-02T16:29:28.379Z,3.50
2019-05-02T16:32:17.770Z,3.15
2019-05-02T16:35:12.363Z,2.35
2019-05-02T16:37:35.364Z,3.15
2019-05-02T16:40:06.623Z,2.70
2019-05-02T16:42:36.042Z,2.75
2019-05-02T16:45:08.079Z,2.80
2019-05-02T16:47:37.479Z,2.35
2019-05-02T16:50:13.108Z,2.70
2019-05-02T16:52:47.203Z,2.83
2019-05-02T16:55:20.945Z,2.55
2019-05-02T16:57:45.816Z,2.98
2019-05-02T17:00:19.626Z,2.85
2019-05-02T17:02:48.855Z,2.37
2019-05-02T17:05:18.399Z,2.72
2019-05-02T17:08:15.577Z,2.70
2019-05-02T17:11:15.378Z,2.35
2019-05-02T17:13:42.643Z,2.85
2019-05-02T17:16:15.848Z,3.17
2019-05-02T17:18:43.419Z,2.37
2019-05-02T17:21:12.932Z,4.10
2019-05-02T17:23:46.339Z,3.83
2019-05-02T17:26:13.085Z,4.83
2019-05-02T17:28:46.939Z,2.83
2019-05-02T17:31:19.565Z,2.40
2019-05-02T17:33:46.174Z,2.85
2019-05-02T17:36:15.496Z,4.78
2019-05-02T17:38:44.690Z,3.00
2019-05-02T17:41:13.875Z,3.95
2019-05-02T17:43:43.723Z,2.35
2019-05-02T17:46:18.296Z,3.00
2019-05-02T17:48:47.710Z,2.90
2019-05-02T17:51:39.869Z,2.65
2019-05-02T17:54:09.411Z,2.50
2019-05-02T17:56:38.771Z,3.40
2019-05-02T17:59:08.079Z,2.60
2019-05-02T18:01:41.804Z,4.70
2019-05-02T18:04:12.564Z,1.95
2019-05-02T18:06:42.340Z,2.40
2019-05-02T18:09:12.232Z,3.58
2019-05-02T18:11:42.399Z,3.52
2019-05-02T18:14:19.619Z,2.42
2019-05-02T18:16:47.066Z,2.65
2019-05-02T18:19:16.073Z,2.60
2019-05-02T18:21:44.661Z,5.03
2019-05-02T18:24:13.788Z,3.33
2019-05-02T18:26:42.905Z,3.27
2019-05-02T18:29:13.203Z,3.08
2019-05-02T18:31:47.317Z,3.20
2019-05-02T18:34:20.246Z,2.80
2019-05-02T18:36:44.999Z,12.68
2019-05-02T18:39:14.800Z,5.10
2019-05-02T18:41:46.343Z,3.42
2019-05-02T18:44:34.096Z,4.30
2019-05-02T18:47:03.628Z,2.90
2019-05-02T18:49:32.984Z,3.22
2019-05-02T18:52:02.233Z,3.33
2019-05-02T18:54:31.405Z,2.47
2019-05-02T18:57:02.388Z,2.77
2019-05-02T18:59:32.069Z,2.65
2019-05-02T19:02:02.172Z,2.27
2019-05-02T19:04:38.188Z,2.40
2019-05-02T19:07:02.899Z,2.42
2019-05-02T19:09:33.235Z,2.62
2019-05-02T19:12:05.741Z,2.65
2019-05-02T19:14:33.946Z,14.30
2019-05-02T19:17:07.145Z,3.70
2019-05-02T19:19:36.770Z,2.40
2019-05-02T19:22:07.443Z,2.00
2019-05-02T19:24:36.641Z,2.25
2019-05-02T19:27:06.534Z,2.35
2019-05-02T19:29:35.772Z,2.15
2019-05-02T19:32:08.352Z,1.63
2019-05-02T19:34:37.668Z,4.17
2019-05-02T19:37:06.944Z,2.00
2019-05-02T19:39:38.985Z,1.70
2019-05-02T19:42:08.217Z,1.65
2019-05-02T19:44:37.816Z,1.67
2019-05-02T19:47:08.290Z,1.95
2019-05-02T19:49:37.883Z,2.05
2019-05-02T19:52:07.152Z,2.27
2019-05-02T19:54:39.299Z,2.08
2019-05-02T19:57:07.282Z,2.45
2019-05-02T19:59:36.426Z,2.90
2019-05-02T20:02:06.285Z,2.72
2019-05-02T20:04:37.775Z,2.72
2019-05-02T20:07:06.513Z,2.42
2019-05-02T20:09:38.078Z,3.30
2019-05-02T20:12:09.639Z,2.80
2019-05-02T20:14:38.141Z,2.83
2019-05-02T20:17:14.836Z,2.45
2019-05-02T20:19:43.521Z,3.15
2019-05-02T20:22:15.647Z,2.95
2019-05-02T20:25:00.289Z,3.50
2019-05-02T20:27:28.445Z,3.90
2019-05-02T20:29:57.673Z,6.58
2019-05-02T20:32:27.035Z,5.50
2019-05-02T20:34:56.347Z,4.83
2019-05-02T20:37:25.738Z,2.97
2019-05-02T20:39:54.998Z,2.47
2019-05-02T20:42:24.265Z,2.80
2019-05-02T20:44:53.825Z,2.80
2019-05-02T20:47:25.490Z,2.70
2019-05-02T20:49:55.033Z,2.30
2019-05-02T20:52:24.331Z,2.57
2019-05-02T20:54:53.628Z,2.63
2019-05-02T20:57:22.858Z,3.00
2019-05-02T20:59:52.784Z,2.55
2019-05-02T21:02:22.210Z,2.40
2019-05-02T21:04:52.119Z,2.37
2019-05-02T21:07:42.403Z,2.63
2019-05-02T21:10:21.761Z,2.63
2019-05-02T21:12:52.608Z,2.47
2019-05-02T21:15:22.062Z,2.50
2019-05-02T21:17:51.617Z,2.93
2019-05-02T21:20:21.921Z,3.22
2019-05-02T21:22:52.955Z,3.37
2019-05-02T21:25:23.214Z,3.17
2019-05-02T21:27:52.828Z,3.03
2019-05-02T21:30:27.011Z,2.70
2019-05-02T21:32:56.274Z,3.07
2019-05-02T21:35:25.676Z,3.70
2019-05-02T21:37:55.159Z,3.12
2019-05-02T21:40:25.855Z,3.03
2019-05-02T21:42:55.424Z,2.93
2019-05-02T21:45:24.739Z,2.25
2019-05-02T21:47:53.969Z,2.70
2019-05-02T21:50:32.341Z,3.00
2019-05-02T21:53:18.481Z,2.40
2019-05-02T21:56:12.337Z,3.42
2019-05-02T21:59:02.822Z,3.07
2019-05-02T22:01:32.907Z,2.63
2019-05-02T22:04:02.568Z,2.43
2019-05-02T22:06:32.414Z,2.52
2019-05-02T22:09:03.069Z,2.65
2019-05-02T22:11:33.810Z,2.50
2019-05-02T22:14:03.091Z,2.27
2019-05-02T22:16:32.757Z,2.45
2019-05-02T22:19:02.940Z,2.33
2019-05-02T22:21:35.008Z,2.37
2019-05-02T22:24:11.049Z,2.42
2019-05-02T22:26:39.536Z,2.47
2019-05-02T22:29:09.335Z,2.93
2019-05-02T22:31:38.880Z,2.63
2019-05-02T22:34:08.882Z,3.20
2019-05-02T22:36:39.598Z,2.67
2019-05-02T22:39:42.069Z,3.03
2019-05-02T22:42:12.731Z,2.90
2019-05-02T22:44:42.629Z,2.27
2019-05-02T22:47:15.172Z,2.97
2019-05-02T22:49:48.413Z,2.90
2019-05-02T22:52:18.678Z,2.92
2019-05-02T22:54:48.126Z,2.80
2019-05-02T22:57:17.446Z,2.60
2019-05-02T22:59:46.997Z,2.60
2019-05-02T23:02:16.371Z,3.60
2019-05-02T23:04:45.707Z,2.80
2019-05-02T23:07:15.117Z,2.60
2019-05-02T23:09:44.509Z,2.53
2019-05-02T23:12:14.007Z,2.15
2019-05-02T23:14:43.349Z,2.00
2019-05-02T23:17:12.918Z,3.00
2019-05-02T23:19:44.902Z,2.83
2019-05-02T23:22:14.394Z,2.65
2019-05-02T23:24:51.982Z,2.40
2019-05-02T23:27:31.771Z,2.50
2019-05-02T23:30:02.898Z,2.65
2019-05-02T23:32:32.065Z,2.20
2019-05-02T23:35:01.959Z,2.60
2019-05-02T23:37:32.624Z,2.23
2019-05-02T23:40:02.159Z,2.90
2019-05-02T23:42:31.325Z,2.30
2019-05-02T23:45:02.680Z,2.40
2019-05-02T23:47:33.027Z,2.40
2019-05-02T23:50:02.785Z,2.97
2019-05-02T23:52:32.306Z,2.83
2019-05-02T23:55:02.972Z,2.27
2019-05-02T23:57:32.560Z,2.67
